createdAt,value
2018-03-15T00:01:54.185Z,58.79
2018-03-15T00:04:21.715Z,59.08
2018-03-15T00:06:49.230Z,59.11
2018-03-15T00:09:16.761Z,59.07
2018-03-15T00:11:44.273Z,59.09
2018-03-15T00:14:12.084Z,59.42
2018-03-15T00:16:39.597Z,59.37
2018-03-15T00:19:08.043Z,59.47
2018-03-15T00:21:36.627Z,59.42
2018-03-15T00:24:04.136Z,59.43
2018-03-15T00:26:31.695Z,59.62
2018-03-15T00:28:59.230Z,59.51
2018-03-15T00:31:26.743Z,59.88
2018-03-15T00:33:54.278Z,59.93
2018-03-15T00:36:21.791Z,59.94
2018-03-15T00:38:49.617Z,59.66
2018-03-15T00:41:17.132Z,59.57
2018-03-15T00:43:44.643Z,59.75
2018-03-15T00:46:12.181Z,59.75
2018-03-15T00:48:39.694Z,60.05
2018-03-15T00:51:07.234Z,59.88
2018-03-15T00:53:34.781Z,59.79
2018-03-15T00:56:02.402Z,59.77
2018-03-15T00:58:29.955Z,59.84
2018-03-15T01:00:57.461Z,59.82
2018-03-15T01:03:25.954Z,59.85
2018-03-15T01:05:53.465Z,59.84
2018-03-15T01:08:20.987Z,60.04
2018-03-15T01:10:48.526Z,60.46
2018-03-15T01:13:16.046Z,60.61
2018-03-15T01:15:43.937Z,60.86
2018-03-15T01:18:11.450Z,61.16
2018-03-15T01:20:38.969Z,60.96
2018-03-15T01:23:07.452Z,60.58
2018-03-15T01:25:34.972Z,60.54
2018-03-15T01:28:02.530Z,61.05
2018-03-15T01:30:30.046Z,60.93
2018-03-15T01:32:57.556Z,60.97
2018-03-15T01:35:25.118Z,60.98
2018-03-15T01:37:52.629Z,60.92
2018-03-15T01:40:20.181Z,60.98
2018-03-15T01:42:47.690Z,61.17
2018-03-15T01:45:15.207Z,61.24
2018-03-15T01:47:42.749Z,61.40
2018-03-15T01:50:10.275Z,60.73
2018-03-15T01:52:38.112Z,60.51
2018-03-15T01:55:05.635Z,60.76
2018-03-15T01:57:33.145Z,61.22
2018-03-15T02:00:00.712Z,61.31
2018-03-15T02:02:28.227Z,61.32
2018-03-15T02:04:55.933Z,61.02
2018-03-15T02:07:24.439Z,61.16
2018-03-15T02:09:51.953Z,61.73
2018-03-15T02:12:19.502Z,62.09
2018-03-15T02:14:47.025Z,61.81
2018-03-15T02:17:14.753Z,62.09
2018-03-15T02:19:42.285Z,61.92
2018-03-15T02:22:09.792Z,62.27
2018-03-15T02:24:37.335Z,63.01
2018-03-15T02:27:04.848Z,63.00
2018-03-15T02:29:32.552Z,63.08
2018-03-15T02:32:00.068Z,62.77
2018-03-15T02:34:27.579Z,62.79
2018-03-15T02:36:55.128Z,62.95
2018-03-15T02:39:23.628Z,63.48
2018-03-15T02:41:51.165Z,63.42
2018-03-15T02:44:18.679Z,63.27
2018-03-15T02:46:46.201Z,63.33
2018-03-15T02:49:13.743Z,63.46
2018-03-15T02:51:41.282Z,63.24
2018-03-15T02:54:08.839Z,64.00
2018-03-15T02:56:36.360Z,64.21
2018-03-15T02:59:03.869Z,63.99
2018-03-15T03:01:31.413Z,63.57
2018-03-15T03:03:58.930Z,63.42
2018-03-15T03:06:26.466Z,63.49
2018-03-15T03:08:53.981Z,63.52
2018-03-15T03:11:21.493Z,63.69
2018-03-15T03:13:49.034Z,63.30
2018-03-15T03:16:16.545Z,63.60
2018-03-15T03:18:44.354Z,64.09
2018-03-15T03:21:11.880Z,63.71
2018-03-15T03:23:39.394Z,63.66
2018-03-15T03:26:06.944Z,63.92
2018-03-15T03:28:34.451Z,63.92
2018-03-15T03:31:02.478Z,63.79
2018-03-15T03:33:30.080Z,63.73
2018-03-15T03:35:57.602Z,64.38
2018-03-15T03:38:25.146Z,64.72
2018-03-15T03:40:52.686Z,64.95
2018-03-15T03:43:20.553Z,64.74
2018-03-15T03:45:48.065Z,64.51
2018-03-15T03:48:15.579Z,63.85
2018-03-15T03:50:43.175Z,63.81
2018-03-15T03:53:10.668Z,64.25
2018-03-15T03:55:38.346Z,64.43
2018-03-15T03:58:05.857Z,64.50
2018-03-15T04:00:33.369Z,64.44
2018-03-15T04:03:00.933Z,64.40
2018-03-15T04:05:28.449Z,64.56
2018-03-15T04:07:56.295Z,64.38
2018-03-15T04:10:23.805Z,65.16
2018-03-15T04:12:51.318Z,65.43
2018-03-15T04:15:18.861Z,65.48
2018-03-15T04:17:46.369Z,65.05
2018-03-15T04:20:14.144Z,66.01
2018-03-15T04:22:41.665Z,65.66
2018-03-15T04:25:09.180Z,66.47
2018-03-15T04:27:36.725Z,65.64
2018-03-15T04:30:04.269Z,64.46
2018-03-15T04:32:31.913Z,64.39
2018-03-15T04:34:59.422Z,64.76
2018-03-15T04:37:26.937Z,65.46
2018-03-15T04:39:54.483Z,65.67
2018-03-15T04:42:21.994Z,65.20
2018-03-15T04:44:49.559Z,64.87
2018-03-15T04:47:17.077Z,64.80
2018-03-15T04:49:44.598Z,65.04
2018-03-15T04:52:12.133Z,65.30
2018-03-15T04:54:39.645Z,65.30
2018-03-15T04:57:07.201Z,65.33
2018-03-15T04:59:35.222Z,65.34
2018-03-15T05:02:02.734Z,65.27
2018-03-15T05:04:30.275Z,65.35
2018-03-15T05:06:57.800Z,65.61
2018-03-15T05:09:25.558Z,65.48
2018-03-15T05:11:53.069Z,65.31
2018-03-15T05:14:20.589Z,65.27
2018-03-15T05:16:48.125Z,65.08
2018-03-15T05:19:15.645Z,64.95
2018-03-15T05:21:43.434Z,65.01
2018-03-15T05:24:10.951Z,64.79
2018-03-15T05:26:38.470Z,64.65
2018-03-15T05:29:06.011Z,64.33
2018-03-15T05:31:33.522Z,63.90
2018-03-15T05:34:01.237Z,63.77
2018-03-15T05:36:28.760Z,63.88
2018-03-15T05:38:56.271Z,64.14
2018-03-15T05:41:23.831Z,64.21
2018-03-15T05:43:51.352Z,63.77
2018-03-15T05:46:19.125Z,63.27
2018-03-15T05:48:46.648Z,63.24
2018-03-15T05:51:14.157Z,63.45
2018-03-15T05:53:41.702Z,63.33
2018-03-15T05:56:09.221Z,63.78
2018-03-15T05:58:37.029Z,64.41
2018-03-15T06:01:04.550Z,63.25
2018-03-15T06:03:32.144Z,63.73
2018-03-15T06:06:00.027Z,63.19
2018-03-15T06:08:27.546Z,62.89
2018-03-15T06:10:55.113Z,64.48
2018-03-15T06:13:22.629Z,64.32
2018-03-15T06:15:50.158Z,63.91
2018-03-15T06:18:17.692Z,63.50
2018-03-15T06:20:45.226Z,63.47
2018-03-15T06:23:12.769Z,62.97
2018-03-15T06:25:40.359Z,62.59
2018-03-15T06:28:07.882Z,62.20
2018-03-15T06:30:35.426Z,62.25
2018-03-15T06:33:02.942Z,62.20
2018-03-15T06:35:30.637Z,62.15
2018-03-15T06:37:58.148Z,63.72
2018-03-15T06:40:25.662Z,62.87
2018-03-15T06:42:53.201Z,63.15
2018-03-15T06:45:20.714Z,63.01
2018-03-15T06:47:48.557Z,62.28
2018-03-15T06:50:16.072Z,61.09
2018-03-15T06:52:43.585Z,61.13
2018-03-15T06:55:11.145Z,60.43
2018-03-15T06:57:38.653Z,60.86
2018-03-15T07:00:06.313Z,60.26
2018-03-15T07:02:33.829Z,60.36
2018-03-15T07:05:01.334Z,59.63
2018-03-15T07:07:28.874Z,58.64
2018-03-15T07:09:56.399Z,58.24
2018-03-15T07:12:24.114Z,57.90
2018-03-15T07:14:51.631Z,57.45
2018-03-15T07:17:19.140Z,57.21
2018-03-15T07:19:46.686Z,57.61
2018-03-15T07:22:14.198Z,57.55
2018-03-15T07:24:41.750Z,56.91
2018-03-15T07:27:09.270Z,56.17
2018-03-15T07:29:36.778Z,56.01
2018-03-15T07:32:04.815Z,55.55
2018-03-15T07:34:32.379Z,55.27
2018-03-15T07:37:00.135Z,54.44
2018-03-15T07:39:27.667Z,54.34
2018-03-15T07:41:55.257Z,54.28
2018-03-15T07:44:22.807Z,54.12
2018-03-15T07:46:50.353Z,54.49
2018-03-15T07:49:18.006Z,55.19
2018-03-15T07:51:45.518Z,55.45
2018-03-15T07:54:13.042Z,55.37
2018-03-15T07:56:40.582Z,54.34
2018-03-15T07:59:08.096Z,53.17
2018-03-15T08:01:35.645Z,52.41
2018-03-15T08:04:03.158Z,52.72
2018-03-15T08:06:30.683Z,51.99
2018-03-15T08:08:58.230Z,52.26
2018-03-15T08:11:25.747Z,51.29
2018-03-15T08:13:53.363Z,50.44
2018-03-15T08:16:20.886Z,50.37
2018-03-15T08:18:48.419Z,49.46
2018-03-15T08:21:15.969Z,49.92
2018-03-15T08:23:43.485Z,49.39
2018-03-15T08:26:11.050Z,48.53
2018-03-15T08:28:38.565Z,48.74
2018-03-15T08:31:06.090Z,48.20
2018-03-15T08:33:33.648Z,47.93
2018-03-15T08:36:01.171Z,47.40
2018-03-15T08:38:28.724Z,47.30
2018-03-15T08:40:56.250Z,46.57
2018-03-15T08:43:23.769Z,46.00
2018-03-15T08:45:51.310Z,45.69
2018-03-15T08:48:18.825Z,44.08
2018-03-15T08:50:46.527Z,42.80
2018-03-15T08:53:14.021Z,42.46
2018-03-15T08:55:41.541Z,42.55
2018-03-15T08:58:09.117Z,42.38
2018-03-15T09:00:36.630Z,41.88
2018-03-15T09:03:04.203Z,42.53
2018-03-15T09:05:31.726Z,42.44
2018-03-15T09:07:59.245Z,41.62
2018-03-15T09:10:26.808Z,40.80
2018-03-15T09:12:54.343Z,40.10
2018-03-15T09:15:22.077Z,40.18
2018-03-15T09:17:49.602Z,39.67
2018-03-15T09:20:17.159Z,41.41
2018-03-15T09:22:44.702Z,40.38
2018-03-15T09:25:12.217Z,40.93
2018-03-15T09:27:40.045Z,40.45
2018-03-15T09:30:07.575Z,38.85
2018-03-15T09:32:35.127Z,37.85
2018-03-15T09:35:02.691Z,37.91
2018-03-15T09:37:30.241Z,36.14
2018-03-15T09:39:57.977Z,35.85
2018-03-15T09:42:25.524Z,35.72
2018-03-15T09:44:53.062Z,34.86
2018-03-15T09:47:20.641Z,34.90
2018-03-15T09:49:48.173Z,35.80
2018-03-15T09:52:15.874Z,34.79
2018-03-15T09:54:43.407Z,35.90
2018-03-15T09:57:10.958Z,35.06
2018-03-15T09:59:38.516Z,35.05
2018-03-15T10:02:06.058Z,34.27
2018-03-15T10:04:34.382Z,33.02
2018-03-15T10:07:01.928Z,32.18
2018-03-15T10:09:29.465Z,31.23
2018-03-15T10:11:57.027Z,33.97
2018-03-15T10:14:24.560Z,32.67
2018-03-15T10:16:52.292Z,33.12
2018-03-15T10:19:19.846Z,34.61
2018-03-15T10:21:47.488Z,35.07
2018-03-15T10:24:15.013Z,34.38
2018-03-15T10:26:42.558Z,34.97
2018-03-15T10:29:10.141Z,35.34
2018-03-15T10:31:37.678Z,36.19
2018-03-15T10:34:05.226Z,36.46
2018-03-15T10:36:32.805Z,36.19
2018-03-15T10:39:00.361Z,36.80
2018-03-15T10:41:27.958Z,35.88
2018-03-15T10:43:55.534Z,35.54
2018-03-15T10:46:23.943Z,35.14
2018-03-15T10:48:51.582Z,34.24
2018-03-15T10:51:19.116Z,31.45
2018-03-15T10:53:46.722Z,30.29
2018-03-15T10:56:14.253Z,27.88
2018-03-15T10:58:42.016Z,27.74
2018-03-15T11:01:09.562Z,26.61
2018-03-15T11:03:42.634Z,27.63
2018-03-15T11:06:29.625Z,28.45
2018-03-15T11:08:58.945Z,30.08
2018-03-15T11:11:26.483Z,31.02
2018-03-15T11:13:54.039Z,31.48
2018-03-15T11:16:21.685Z,31.94
2018-03-15T11:18:49.214Z,31.40
2018-03-15T11:21:17.085Z,30.48
2018-03-15T11:23:45.558Z,30.60
2018-03-15T11:26:13.002Z,28.50
2018-03-15T11:28:41.016Z,25.31
2018-03-15T11:31:08.537Z,22.42
2018-03-15T11:33:36.114Z,20.27
2018-03-15T11:36:03.694Z,19.62
2018-03-15T11:38:31.263Z,21.22
2018-03-15T11:40:58.801Z,19.92
2018-03-15T11:43:26.330Z,17.38
2018-03-15T11:45:54.105Z,15.08
2018-03-15T11:48:21.664Z,16.62
2018-03-15T11:50:49.203Z,15.09
2018-03-15T11:53:16.762Z,13.63
2018-03-15T11:55:44.309Z,12.81
2018-03-15T11:58:12.312Z,12.51
2018-03-15T12:00:39.844Z,13.45
2018-03-15T12:03:07.370Z,12.80
2018-03-15T12:05:34.942Z,12.78
2018-03-15T12:08:02.487Z,13.74
2018-03-15T12:10:30.217Z,15.48
2018-03-15T12:12:57.755Z,15.28
2018-03-15T12:15:25.285Z,16.86
2018-03-15T12:17:52.862Z,18.93
2018-03-15T12:20:20.377Z,19.05
2018-03-15T12:22:48.119Z,20.70
2018-03-15T12:25:15.633Z,20.52
2018-03-15T12:27:43.150Z,20.56
2018-03-15T12:30:10.697Z,21.88
2018-03-15T12:32:38.209Z,22.67
2018-03-15T12:35:05.757Z,22.65
2018-03-15T12:37:33.282Z,21.60
2018-03-15T12:40:00.798Z,21.86
2018-03-15T12:42:28.342Z,21.27
2018-03-15T12:44:55.895Z,21.87
2018-03-15T12:47:23.705Z,22.88
2018-03-15T12:49:51.230Z,24.07
2018-03-15T12:52:18.752Z,23.31
2018-03-15T12:54:46.302Z,24.84
2018-03-15T12:57:13.827Z,26.20
2018-03-15T12:59:41.798Z,26.60
2018-03-15T13:02:09.312Z,27.17
2018-03-15T13:04:36.840Z,27.58
2018-03-15T13:07:04.409Z,28.29
2018-03-15T13:09:31.927Z,27.95
2018-03-15T13:11:59.482Z,27.86
2018-03-15T13:14:27.018Z,28.45
2018-03-15T13:16:54.865Z,29.00
2018-03-15T13:19:22.420Z,28.92
2018-03-15T13:21:49.938Z,29.56
2018-03-15T13:24:17.814Z,30.19
2018-03-15T13:26:45.341Z,30.41
2018-03-15T13:29:12.864Z,30.68
2018-03-15T13:31:40.414Z,30.43
2018-03-15T13:34:08.379Z,30.05
2018-03-15T13:36:35.939Z,30.70
2018-03-15T13:39:03.454Z,30.64
2018-03-15T13:41:30.974Z,30.99
2018-03-15T13:43:58.516Z,30.61
2018-03-15T13:46:26.039Z,30.18
2018-03-15T13:48:53.838Z,31.11
2018-03-15T13:51:21.357Z,30.87
2018-03-15T13:53:48.869Z,30.96
2018-03-15T13:56:16.411Z,32.76
2018-03-15T13:58:43.929Z,32.80
2018-03-15T14:01:11.722Z,32.97
2018-03-15T14:03:39.295Z,33.17
2018-03-15T14:06:06.785Z,33.02
2018-03-15T14:08:34.329Z,33.79
2018-03-15T14:11:01.844Z,34.32
2018-03-15T14:13:29.621Z,34.86
2018-03-15T14:15:57.150Z,35.30
2018-03-15T14:18:24.674Z,35.41
2018-03-15T14:20:52.238Z,35.37
2018-03-15T14:23:19.779Z,36.16
2018-03-15T14:25:47.449Z,36.74
2018-03-15T14:28:14.969Z,36.33
2018-03-15T14:30:42.702Z,36.11
2018-03-15T14:33:10.393Z,36.56
2018-03-15T14:35:37.954Z,36.94
2018-03-15T14:38:05.626Z,38.82
2018-03-15T14:40:33.400Z,39.62
2018-03-15T14:43:01.265Z,38.57
2018-03-15T14:45:29.034Z,39.30
2018-03-15T14:47:56.581Z,39.42
2018-03-15T14:50:24.301Z,40.36
2018-03-15T14:52:52.015Z,40.00
2018-03-15T14:55:19.672Z,40.73
2018-03-15T14:57:47.340Z,40.96
2018-03-15T15:00:15.102Z,40.08
2018-03-15T15:02:43.174Z,40.07
2018-03-15T15:05:10.738Z,40.11
2018-03-15T15:07:38.468Z,40.47
2018-03-15T15:10:06.030Z,41.27
2018-03-15T15:12:33.583Z,41.03
2018-03-15T15:15:01.160Z,40.44
2018-03-15T15:17:28.864Z,40.73
2018-03-15T15:19:56.441Z,40.89
2018-03-15T15:22:24.044Z,40.58
2018-03-15T15:24:51.799Z,40.80
2018-03-15T15:27:19.535Z,41.25
2018-03-15T15:29:47.232Z,41.25
2018-03-15T15:32:14.762Z,41.52
2018-03-15T15:34:42.670Z,41.37
2018-03-15T15:37:10.208Z,40.72
2018-03-15T15:39:37.996Z,40.64
2018-03-15T15:42:05.654Z,41.22
2018-03-15T15:44:33.539Z,41.45
2018-03-15T15:47:01.287Z,41.69
2018-03-15T15:49:29.156Z,42.26
2018-03-15T15:51:57.564Z,42.26
2018-03-15T15:54:25.506Z,41.68
2018-03-15T15:56:53.782Z,42.92
2018-03-15T15:59:21.544Z,42.80
2018-03-15T16:01:49.305Z,43.44
2018-03-15T16:04:17.172Z,43.91
2018-03-15T16:06:45.039Z,43.65
2018-03-15T16:09:13.134Z,44.68
2018-03-15T16:11:40.861Z,44.99
2018-03-15T16:14:08.534Z,44.39
2018-03-15T16:16:36.765Z,44.46
2018-03-15T16:19:04.377Z,43.90
2018-03-15T16:21:32.243Z,43.17
2018-03-15T16:24:00.308Z,43.42
2018-03-15T16:26:29.607Z,43.13
2018-03-15T16:28:57.680Z,43.22
2018-03-15T16:31:25.617Z,42.89
2018-03-15T16:33:53.514Z,42.86
2018-03-15T16:36:21.381Z,42.73
2018-03-15T16:38:49.217Z,43.42
2018-03-15T16:41:17.216Z,43.53
2018-03-15T16:43:45.491Z,43.22
2018-03-15T16:46:13.872Z,43.31
2018-03-15T16:48:42.863Z,42.68
2018-03-15T16:51:10.685Z,42.77
2018-03-15T16:53:38.699Z,42.57
2018-03-15T16:56:06.585Z,43.12
2018-03-15T16:58:34.501Z,42.45
2018-03-15T17:01:02.290Z,43.14
2018-03-15T17:03:29.910Z,43.65
2018-03-15T17:05:57.696Z,43.41
2018-03-15T17:08:25.386Z,43.18
2018-03-15T17:10:53.251Z,42.96
2018-03-15T17:13:21.227Z,43.20
2018-03-15T17:15:48.971Z,43.32
2018-03-15T17:18:17.055Z,43.65
2018-03-15T17:20:44.788Z,43.99
2018-03-15T17:23:12.481Z,43.72
2018-03-15T17:25:40.246Z,44.20
2018-03-15T17:28:07.860Z,44.63
2018-03-15T17:30:35.877Z,46.10
2018-03-15T17:33:03.846Z,46.47
2018-03-15T17:35:31.609Z,46.48
2018-03-15T17:37:59.548Z,45.97
2018-03-15T17:40:27.955Z,46.00
2018-03-15T17:42:56.556Z,45.48
2018-03-15T17:45:24.615Z,44.93
2018-03-15T17:47:52.476Z,44.83
2018-03-15T17:50:20.413Z,45.35
2018-03-15T17:52:48.311Z,45.31
2018-03-15T17:55:16.690Z,45.38
2018-03-15T17:57:44.562Z,45.93
2018-03-15T18:00:12.268Z,46.20
2018-03-15T18:02:40.147Z,46.11
2018-03-15T18:05:08.564Z,46.09
2018-03-15T18:07:36.534Z,46.50
2018-03-15T18:10:05.425Z,46.34
2018-03-15T18:12:34.008Z,46.58
2018-03-15T18:15:02.254Z,46.74
2018-03-15T18:17:30.118Z,46.79
2018-03-15T18:19:58.119Z,46.88
2018-03-15T18:22:26.088Z,47.04
2018-03-15T18:24:54.945Z,47.00
2018-03-15T18:27:23.055Z,47.32
2018-03-15T18:29:51.020Z,47.26
2018-03-15T18:32:18.887Z,47.62
2018-03-15T18:34:47.161Z,47.34
2018-03-15T18:37:15.335Z,47.59
2018-03-15T18:39:43.406Z,47.40
2018-03-15T18:42:11.580Z,47.19
2018-03-15T18:44:40.355Z,47.25
2018-03-15T18:47:08.256Z,47.64
2018-03-15T18:49:36.408Z,47.68
2018-03-15T18:52:04.380Z,48.06
2018-03-15T18:54:32.624Z,48.54
2018-03-15T18:57:00.491Z,48.83
2018-03-15T18:59:28.927Z,48.96
2018-03-15T19:01:56.875Z,49.45
2018-03-15T19:04:24.801Z,49.47
2018-03-15T19:06:53.011Z,49.76
2018-03-15T19:09:20.877Z,50.02
2018-03-15T19:11:48.740Z,50.02
2018-03-15T19:14:16.710Z,49.72
2018-03-15T19:16:45.517Z,49.70
2018-03-15T19:19:13.467Z,49.67
2018-03-15T19:21:41.335Z,49.87
2018-03-15T19:24:09.712Z,50.32
2018-03-15T19:26:37.475Z,50.11
2018-03-15T19:29:05.546Z,50.44
2018-03-15T19:31:33.517Z,51.38
2018-03-15T19:34:01.383Z,51.30
2018-03-15T19:36:29.761Z,51.73
2018-03-15T19:38:57.832Z,51.78
2018-03-15T19:41:25.567Z,52.30
2018-03-15T19:43:54.779Z,52.04
2018-03-15T19:46:23.172Z,52.01
2018-03-15T19:48:51.245Z,51.92
2018-03-15T19:51:19.213Z,51.79
2018-03-15T19:53:47.082Z,51.81
2018-03-15T19:56:15.273Z,51.59
2018-03-15T19:58:43.085Z,51.72
2018-03-15T20:01:11.293Z,51.23
2018-03-15T20:03:39.176Z,51.42
2018-03-15T20:06:07.086Z,52.01
2018-03-15T20:08:35.200Z,53.17
2018-03-15T20:11:03.066Z,53.34
2018-03-15T20:13:31.711Z,53.11
2018-03-15T20:16:00.721Z,53.29
2018-03-15T20:18:28.919Z,53.49
2018-03-15T20:20:57.098Z,53.55
2018-03-15T20:26:31.841Z,53.68
2018-03-15T20:29:00.323Z,52.97
2018-03-15T20:31:28.292Z,54.37
2018-03-15T20:34:02.711Z,54.55
2018-03-15T20:36:30.679Z,54.59
2018-03-15T20:38:58.955Z,54.51
2018-03-15T20:41:28.152Z,55.42
2018-03-15T20:43:56.020Z,54.69
2018-03-15T20:46:29.624Z,54.89
2018-03-15T20:49:03.368Z,54.15
2018-03-15T20:51:32.214Z,53.95
2018-03-15T20:54:00.025Z,54.14
2018-03-15T20:56:27.915Z,54.77
2018-03-15T20:58:55.759Z,53.92
2018-03-15T21:01:23.984Z,53.76
2018-03-15T21:03:51.954Z,54.29
2018-03-15T21:06:20.131Z,53.73
2018-03-15T21:08:47.999Z,54.46
2018-03-15T21:11:15.871Z,55.33
2018-03-15T21:13:43.685Z,54.73
2018-03-15T21:16:11.525Z,54.32
2018-03-15T21:18:39.357Z,54.40
2018-03-15T21:21:07.759Z,53.78
2018-03-15T21:23:35.551Z,53.20
2018-03-15T21:26:03.620Z,53.55
2018-03-15T21:28:31.510Z,53.50
2018-03-15T21:30:59.407Z,53.51
2018-03-15T21:33:27.300Z,53.12
2018-03-15T21:35:55.140Z,53.57
2018-03-15T21:38:22.877Z,53.32
2018-03-15T21:40:51.385Z,53.20
2018-03-15T21:43:19.354Z,53.00
2018-03-15T21:45:47.743Z,52.93
2018-03-15T21:48:15.394Z,53.49
2018-03-15T21:50:43.330Z,54.24
2018-03-15T21:53:11.844Z,55.40
2018-03-15T21:55:39.719Z,54.98
2018-03-15T21:58:07.564Z,54.74
2018-03-15T22:00:35.328Z,55.37
2018-03-15T22:03:03.003Z,56.03
2018-03-15T22:05:30.881Z,55.42
2018-03-15T22:07:58.737Z,55.57
2018-03-15T22:10:26.670Z,55.35
2018-03-15T22:12:54.573Z,55.78
2018-03-15T22:15:22.324Z,55.69
2018-03-15T22:17:50.139Z,55.81
2018-03-15T22:20:18.173Z,55.04
2018-03-15T22:22:45.938Z,56.02
2018-03-15T22:25:13.521Z,55.56
2018-03-15T22:27:41.358Z,55.54
2018-03-15T22:30:09.023Z,56.25
2018-03-15T22:32:36.614Z,55.89
2018-03-15T22:35:04.170Z,55.31
2018-03-15T22:37:31.901Z,56.32
2018-03-15T22:39:59.547Z,56.41
2018-03-15T22:42:27.162Z,56.31
2018-03-15T22:44:54.786Z,56.15
2018-03-15T22:47:22.867Z,56.61
2018-03-15T22:49:50.404Z,56.50
2018-03-15T22:52:17.925Z,56.59
2018-03-15T22:54:45.513Z,56.81
2018-03-15T22:57:13.029Z,56.48
2018-03-15T22:59:40.596Z,56.43
2018-03-15T23:02:08.123Z,57.35
2018-03-15T23:04:35.772Z,56.98
2018-03-15T23:07:03.333Z,57.44
2018-03-15T23:09:30.854Z,57.61
2018-03-15T23:11:58.437Z,57.33
2018-03-15T23:14:25.965Z,56.91
2018-03-15T23:16:53.487Z,56.45
2018-03-15T23:19:21.059Z,57.77
2018-03-15T23:21:48.578Z,56.78
2018-03-15T23:24:16.125Z,56.78
2018-03-15T23:26:43.650Z,57.61
2018-03-15T23:29:11.173Z,59.04
2018-03-15T23:31:38.715Z,59.69
2018-03-15T23:34:06.233Z,59.48
2018-03-15T23:36:33.806Z,59.40
2018-03-15T23:39:01.337Z,59.36
2018-03-15T23:41:28.858Z,59.80
2018-03-15T23:43:56.424Z,60.34
2018-03-15T23:46:23.941Z,59.74
2018-03-15T23:48:51.490Z,59.90
2018-03-15T23:51:19.007Z,60.33
2018-03-15T23:53:46.526Z,60.01
2018-03-15T23:56:14.212Z,60.31
2018-03-15T23:58:41.714Z,60.56
